sensor_id;sensor_type;location;lat;lon;timestamp;P1;durP1;ratioP1;P2;durP2;ratioP2
76292;SDS011;67256;51.154;4.164;2023-03-01T00:01:59;21.45;;;9.57;;
76292;SDS011;67256;51.154;4.164;2023-03-01T00:04:25;11.25;;;8.48;;
76292;SDS011;67256;51.154;4.164;2023-03-01T00:06:52;14.07;;;9.57;;
76292;SDS011;67256;51.154;4.164;2023-03-01T00:09:17;15.02;;;8.45;;
76292;SDS011;67256;51.154;4.164;2023-03-01T00:11:43;14.63;;;8.60;;
76292;SDS011;67256;51.154;4.164;2023-03-01T00:14:10;12.93;;;8.60;;
76292;SDS011;67256;51.154;4.164;2023-03-01T00:16:37;15.70;;;8.60;;
76292;SDS011;67256;51.154;4.164;2023-03-01T00:19:04;14.30;;;9.50;;
76292;SDS011;67256;51.154;4.164;2023-03-01T00:21:31;16.10;;;10.18;;
76292;SDS011;67256;51.154;4.164;2023-03-01T00:23:57;17.00;;;9.95;;
76292;SDS011;67256;51.154;4.164;2023-03-01T00:26:24;12.40;;;9.25;;
76292;SDS011;67256;51.154;4.164;2023-03-01T00:28:50;13.85;;;9.00;;
76292;SDS011;67256;51.154;4.164;2023-03-01T00:31:18;15.23;;;9.63;;
76292;SDS011;67256;51.154;4.164;2023-03-01T00:33:46;17.10;;;10.85;;
76292;SDS011;67256;51.154;4.164;2023-03-01T00:36:13;15.13;;;9.27;;
76292;SDS011;67256;51.154;4.164;2023-03-01T00:38:44;14.70;;;9.43;;
76292;SDS011;67256;51.154;4.164;2023-03-01T00:41:14;16.27;;;10.25;;
76292;SDS011;67256;51.154;4.164;2023-03-01T00:43:42;18.77;;;11.07;;
76292;SDS011;67256;51.154;4.164;2023-03-01T00:46:10;20.05;;;11.07;;
76292;SDS011;67256;51.154;4.164;2023-03-01T00:48:40;14.48;;;9.55;;
76292;SDS011;67256;51.154;4.164;2023-03-01T00:53:34;11.02;;;7.78;;
76292;SDS011;67256;51.154;4.164;2023-03-01T00:56:01;11.80;;;7.32;;
76292;SDS011;67256;51.154;4.164;2023-03-01T00:58:27;11.73;;;7.75;;
76292;SDS011;67256;51.154;4.164;2023-03-01T01:00:52;12.30;;;8.02;;
76292;SDS011;67256;51.154;4.164;2023-03-01T01:03:18;10.35;;;7.30;;
76292;SDS011;67256;51.154;4.164;2023-03-01T01:05:44;14.30;;;8.43;;
76292;SDS011;67256;51.154;4.164;2023-03-01T01:08:11;12.35;;;7.25;;
76292;SDS011;67256;51.154;4.164;2023-03-01T01:10:37;16.42;;;8.20;;
76292;SDS011;67256;51.154;4.164;2023-03-01T01:13:02;12.40;;;7.90;;
76292;SDS011;67256;51.154;4.164;2023-03-01T01:15:33;19.38;;;8.27;;
76292;SDS011;67256;51.154;4.164;2023-03-01T01:17:59;12.63;;;8.30;;
76292;SDS011;67256;51.154;4.164;2023-03-01T01:20:26;17.77;;;8.07;;
76292;SDS011;67256;51.154;4.164;2023-03-01T01:22:52;19.20;;;9.15;;
76292;SDS011;67256;51.154;4.164;2023-03-01T01:25:18;11.88;;;8.45;;
76292;SDS011;67256;51.154;4.164;2023-03-01T01:27:44;14.73;;;8.10;;
76292;SDS011;67256;51.154;4.164;2023-03-01T01:30:10;13.98;;;7.93;;
76292;SDS011;67256;51.154;4.164;2023-03-01T01:32:36;12.13;;;8.43;;
76292;SDS011;67256;51.154;4.164;2023-03-01T01:35:02;10.27;;;7.88;;
76292;SDS011;67256;51.154;4.164;2023-03-01T01:37:28;11.75;;;7.35;;
76292;SDS011;67256;51.154;4.164;2023-03-01T01:39:59;14.38;;;7.47;;
76292;SDS011;67256;51.154;4.164;2023-03-01T01:42:28;16.08;;;8.93;;
76292;SDS011;67256;51.154;4.164;2023-03-01T01:48:06;11.48;;;8.45;;
76292;SDS011;67256;51.154;4.164;2023-03-01T01:50:41;12.85;;;8.57;;
76292;SDS011;67256;51.154;4.164;2023-03-01T01:53:10;12.07;;;8.25;;
76292;SDS011;67256;51.154;4.164;2023-03-01T01:55:41;12.23;;;7.47;;
76292;SDS011;67256;51.154;4.164;2023-03-01T01:58:10;12.10;;;7.30;;
76292;SDS011;67256;51.154;4.164;2023-03-01T02:00:39;11.68;;;8.02;;
76292;SDS011;67256;51.154;4.164;2023-03-01T02:03:07;12.00;;;8.65;;
76292;SDS011;67256;51.154;4.164;2023-03-01T02:08:25;10.73;;;7.63;;
76292;SDS011;67256;51.154;4.164;2023-03-01T02:10:54;14.65;;;8.60;;
76292;SDS011;67256;51.154;4.164;2023-03-01T02:13:21;13.43;;;7.90;;
76292;SDS011;67256;51.154;4.164;2023-03-01T02:15:47;10.38;;;8.10;;
76292;SDS011;67256;51.154;4.164;2023-03-01T02:18:14;12.13;;;8.23;;
76292;SDS011;67256;51.154;4.164;2023-03-01T02:23:30;12.77;;;7.65;;
76292;SDS011;67256;51.154;4.164;2023-03-01T02:28:44;11.10;;;7.95;;
76292;SDS011;67256;51.154;4.164;2023-03-01T02:31:10;15.43;;;9.40;;
76292;SDS011;67256;51.154;4.164;2023-03-01T02:33:59;12.90;;;8.32;;
76292;SDS011;67256;51.154;4.164;2023-03-01T02:36:30;10.23;;;8.38;;
76292;SDS011;67256;51.154;4.164;2023-03-01T02:39:02;10.23;;;8.18;;
76292;SDS011;67256;51.154;4.164;2023-03-01T02:41:31;11.32;;;8.05;;
76292;SDS011;67256;51.154;4.164;2023-03-01T02:44:02;13.48;;;9.93;;
76292;SDS011;67256;51.154;4.164;2023-03-01T02:46:28;17.42;;;7.95;;
76292;SDS011;67256;51.154;4.164;2023-03-01T02:48:55;14.75;;;8.60;;
76292;SDS011;67256;51.154;4.164;2023-03-01T02:56:41;9.93;;;7.93;;
76292;SDS011;67256;51.154;4.164;2023-03-01T02:59:08;15.52;;;8.68;;
76292;SDS011;67256;51.154;4.164;2023-03-01T03:01:35;11.38;;;8.80;;
76292;SDS011;67256;51.154;4.164;2023-03-01T03:04:04;10.68;;;7.90;;
76292;SDS011;67256;51.154;4.164;2023-03-01T03:06:32;12.50;;;8.77;;
76292;SDS011;67256;51.154;4.164;2023-03-01T03:08:58;17.83;;;9.65;;
76292;SDS011;67256;51.154;4.164;2023-03-01T03:11:24;12.70;;;8.68;;
76292;SDS011;67256;51.154;4.164;2023-03-01T03:13:50;11.77;;;8.45;;
76292;SDS011;67256;51.154;4.164;2023-03-01T03:16:17;12.88;;;8.55;;
76292;SDS011;67256;51.154;4.164;2023-03-01T03:18:43;17.13;;;8.43;;
76292;SDS011;67256;51.154;4.164;2023-03-01T03:21:10;13.38;;;9.38;;
76292;SDS011;67256;51.154;4.164;2023-03-01T03:23:37;13.07;;;8.63;;
76292;SDS011;67256;51.154;4.164;2023-03-01T03:26:04;13.27;;;9.30;;
76292;SDS011;67256;51.154;4.164;2023-03-01T03:28:31;12.02;;;8.07;;
76292;SDS011;67256;51.154;4.164;2023-03-01T03:30:57;12.82;;;9.60;;
76292;SDS011;67256;51.154;4.164;2023-03-01T03:33:28;11.13;;;8.50;;
76292;SDS011;67256;51.154;4.164;2023-03-01T03:35:54;12.50;;;9.57;;
76292;SDS011;67256;51.154;4.164;2023-03-01T03:38:20;12.27;;;9.52;;
76292;SDS011;67256;51.154;4.164;2023-03-01T03:43:17;16.67;;;10.07;;
76292;SDS011;67256;51.154;4.164;2023-03-01T03:45:48;14.30;;;9.48;;
76292;SDS011;67256;51.154;4.164;2023-03-01T03:48:16;18.15;;;10.30;;
76292;SDS011;67256;51.154;4.164;2023-03-01T03:50:46;16.10;;;11.00;;
76292;SDS011;67256;51.154;4.164;2023-03-01T03:53:14;14.43;;;9.68;;
76292;SDS011;67256;51.154;4.164;2023-03-01T03:55:40;16.05;;;10.85;;
76292;SDS011;67256;51.154;4.164;2023-03-01T03:58:09;14.68;;;10.20;;
76292;SDS011;67256;51.154;4.164;2023-03-01T04:00:36;16.02;;;9.90;;
76292;SDS011;67256;51.154;4.164;2023-03-01T04:03:05;13.07;;;8.80;;
76292;SDS011;67256;51.154;4.164;2023-03-01T04:05:32;16.98;;;10.38;;
76292;SDS011;67256;51.154;4.164;2023-03-01T04:07:59;19.60;;;10.18;;
76292;SDS011;67256;51.154;4.164;2023-03-01T04:10:33;19.15;;;10.63;;
76292;SDS011;67256;51.154;4.164;2023-03-01T04:13:06;15.70;;;9.73;;
76292;SDS011;67256;51.154;4.164;2023-03-01T04:15:34;19.15;;;10.68;;
76292;SDS011;67256;51.154;4.164;2023-03-01T04:18:00;15.90;;;10.82;;
76292;SDS011;67256;51.154;4.164;2023-03-01T04:20:28;15.68;;;10.38;;
76292;SDS011;67256;51.154;4.164;2023-03-01T04:22:58;15.38;;;10.15;;
76292;SDS011;67256;51.154;4.164;2023-03-01T04:25:41;19.08;;;10.75;;
76292;SDS011;67256;51.154;4.164;2023-03-01T04:28:11;15.45;;;9.18;;
76292;SDS011;67256;51.154;4.164;2023-03-01T04:30:37;16.00;;;10.50;;
76292;SDS011;67256;51.154;4.164;2023-03-01T04:33:07;14.27;;;9.70;;
76292;SDS011;67256;51.154;4.164;2023-03-01T04:35:35;12.75;;;9.10;;
76292;SDS011;67256;51.154;4.164;2023-03-01T04:38:02;12.40;;;8.68;;
76292;SDS011;67256;51.154;4.164;2023-03-01T04:40:28;12.55;;;8.68;;
76292;SDS011;67256;51.154;4.164;2023-03-01T04:42:55;13.48;;;9.60;;
76292;SDS011;67256;51.154;4.164;2023-03-01T04:45:21;14.90;;;9.65;;
76292;SDS011;67256;51.154;4.164;2023-03-01T04:47:47;16.35;;;9.75;;
76292;SDS011;67256;51.154;4.164;2023-03-01T04:50:16;15.98;;;9.90;;
76292;SDS011;67256;51.154;4.164;2023-03-01T04:52:45;17.17;;;9.88;;
76292;SDS011;67256;51.154;4.164;2023-03-01T04:55:12;13.90;;;9.98;;
76292;SDS011;67256;51.154;4.164;2023-03-01T04:57:39;12.65;;;8.85;;
76292;SDS011;67256;51.154;4.164;2023-03-01T05:00:06;13.02;;;9.65;;
76292;SDS011;67256;51.154;4.164;2023-03-01T05:02:54;15.82;;;9.95;;
76292;SDS011;67256;51.154;4.164;2023-03-01T05:05:31;17.17;;;10.95;;
76292;SDS011;67256;51.154;4.164;2023-03-01T05:08:00;18.13;;;10.20;;
76292;SDS011;67256;51.154;4.164;2023-03-01T05:10:32;17.50;;;10.15;;
76292;SDS011;67256;51.154;4.164;2023-03-01T05:13:00;18.90;;;11.23;;
76292;SDS011;67256;51.154;4.164;2023-03-01T05:15:28;16.98;;;9.88;;
76292;SDS011;67256;51.154;4.164;2023-03-01T05:17:56;17.90;;;11.68;;
76292;SDS011;67256;51.154;4.164;2023-03-01T05:20:24;18.30;;;10.02;;
76292;SDS011;67256;51.154;4.164;2023-03-01T05:22:58;14.70;;;9.77;;
76292;SDS011;67256;51.154;4.164;2023-03-01T05:25:25;17.15;;;10.35;;
76292;SDS011;67256;51.154;4.164;2023-03-01T05:27:51;17.48;;;11.82;;
76292;SDS011;67256;51.154;4.164;2023-03-01T05:30:17;17.83;;;11.48;;
76292;SDS011;67256;51.154;4.164;2023-03-01T05:32:45;15.13;;;10.45;;
76292;SDS011;67256;51.154;4.164;2023-03-01T05:35:20;14.40;;;9.70;;
76292;SDS011;67256;51.154;4.164;2023-03-01T05:37:47;22.08;;;10.68;;
76292;SDS011;67256;51.154;4.164;2023-03-01T05:40:17;16.90;;;10.15;;
76292;SDS011;67256;51.154;4.164;2023-03-01T05:42:45;18.48;;;9.18;;
76292;SDS011;67256;51.154;4.164;2023-03-01T05:45:13;16.55;;;9.75;;
76292;SDS011;67256;51.154;4.164;2023-03-01T05:47:40;14.95;;;9.38;;
76292;SDS011;67256;51.154;4.164;2023-03-01T05:50:10;15.82;;;9.85;;
76292;SDS011;67256;51.154;4.164;2023-03-01T05:52:37;20.47;;;10.03;;
76292;SDS011;67256;51.154;4.164;2023-03-01T05:55:04;15.52;;;9.75;;
76292;SDS011;67256;51.154;4.164;2023-03-01T05:57:30;17.70;;;9.35;;
76292;SDS011;67256;51.154;4.164;2023-03-01T05:59:56;17.20;;;11.52;;
76292;SDS011;67256;51.154;4.164;2023-03-01T06:02:22;16.08;;;10.93;;
76292;SDS011;67256;51.154;4.164;2023-03-01T06:04:48;21.27;;;10.65;;
76292;SDS011;67256;51.154;4.164;2023-03-01T06:07:13;16.92;;;9.88;;
76292;SDS011;67256;51.154;4.164;2023-03-01T06:09:39;16.38;;;9.60;;
76292;SDS011;67256;51.154;4.164;2023-03-01T06:12:05;20.65;;;10.32;;
76292;SDS011;67256;51.154;4.164;2023-03-01T06:14:31;20.88;;;9.60;;
76292;SDS011;67256;51.154;4.164;2023-03-01T06:16:57;16.30;;;9.77;;
76292;SDS011;67256;51.154;4.164;2023-03-01T06:19:23;16.10;;;9.80;;
76292;SDS011;67256;51.154;4.164;2023-03-01T06:21:48;21.33;;;10.48;;
76292;SDS011;67256;51.154;4.164;2023-03-01T06:24:14;15.30;;;10.30;;
76292;SDS011;67256;51.154;4.164;2023-03-01T06:26:40;17.83;;;11.13;;
76292;SDS011;67256;51.154;4.164;2023-03-01T06:29:06;20.52;;;11.88;;
76292;SDS011;67256;51.154;4.164;2023-03-01T06:31:33;17.50;;;10.43;;
76292;SDS011;67256;51.154;4.164;2023-03-01T06:33:59;17.23;;;10.05;;
76292;SDS011;67256;51.154;4.164;2023-03-01T06:36:25;14.45;;;9.90;;
76292;SDS011;67256;51.154;4.164;2023-03-01T06:38:51;19.88;;;9.70;;
76292;SDS011;67256;51.154;4.164;2023-03-01T06:41:17;16.50;;;9.45;;
76292;SDS011;67256;51.154;4.164;2023-03-01T06:43:43;16.05;;;9.70;;
76292;SDS011;67256;51.154;4.164;2023-03-01T06:46:09;14.23;;;9.73;;
76292;SDS011;67256;51.154;4.164;2023-03-01T06:48:35;16.17;;;10.00;;
76292;SDS011;67256;51.154;4.164;2023-03-01T06:51:00;16.98;;;10.73;;
76292;SDS011;67256;51.154;4.164;2023-03-01T06:53:27;18.30;;;11.35;;
76292;SDS011;67256;51.154;4.164;2023-03-01T06:55:56;18.90;;;11.40;;
76292;SDS011;67256;51.154;4.164;2023-03-01T06:58:22;18.83;;;10.50;;
76292;SDS011;67256;51.154;4.164;2023-03-01T07:00:48;17.23;;;9.85;;
76292;SDS011;67256;51.154;4.164;2023-03-01T07:03:14;17.05;;;10.85;;
76292;SDS011;67256;51.154;4.164;2023-03-01T07:05:41;18.38;;;10.93;;
76292;SDS011;67256;51.154;4.164;2023-03-01T07:08:07;19.75;;;10.98;;
76292;SDS011;67256;51.154;4.164;2023-03-01T07:10:33;17.88;;;11.68;;
76292;SDS011;67256;51.154;4.164;2023-03-01T07:12:59;16.33;;;11.13;;
76292;SDS011;67256;51.154;4.164;2023-03-01T07:15:25;19.63;;;10.77;;
76292;SDS011;67256;51.154;4.164;2023-03-01T07:17:52;23.25;;;11.73;;
76292;SDS011;67256;51.154;4.164;2023-03-01T07:20:18;24.25;;;11.23;;
76292;SDS011;67256;51.154;4.164;2023-03-01T07:22:44;22.80;;;11.18;;
76292;SDS011;67256;51.154;4.164;2023-03-01T07:25:10;16.38;;;9.35;;
76292;SDS011;67256;51.154;4.164;2023-03-01T07:27:36;17.58;;;9.50;;
76292;SDS011;67256;51.154;4.164;2023-03-01T07:30:02;17.17;;;9.75;;
76292;SDS011;67256;51.154;4.164;2023-03-01T07:32:28;23.17;;;9.80;;
76292;SDS011;67256;51.154;4.164;2023-03-01T07:34:54;19.88;;;9.35;;
76292;SDS011;67256;51.154;4.164;2023-03-01T07:37:20;13.90;;;10.02;;
76292;SDS011;67256;51.154;4.164;2023-03-01T07:39:46;18.42;;;9.55;;
76292;SDS011;67256;51.154;4.164;2023-03-01T07:42:11;23.63;;;9.70;;
76292;SDS011;67256;51.154;4.164;2023-03-01T07:44:37;21.58;;;9.95;;
76292;SDS011;67256;51.154;4.164;2023-03-01T07:47:03;20.85;;;10.45;;
76292;SDS011;67256;51.154;4.164;2023-03-01T07:49:29;17.20;;;9.30;;
76292;SDS011;67256;51.154;4.164;2023-03-01T07:51:55;12.77;;;8.30;;
76292;SDS011;67256;51.154;4.164;2023-03-01T07:54:22;17.45;;;9.48;;
76292;SDS011;67256;51.154;4.164;2023-03-01T07:56:48;16.08;;;8.35;;
76292;SDS011;67256;51.154;4.164;2023-03-01T07:59:13;13.77;;;8.85;;
76292;SDS011;67256;51.154;4.164;2023-03-01T08:01:39;20.08;;;8.98;;
76292;SDS011;67256;51.154;4.164;2023-03-01T08:04:06;17.15;;;7.63;;
76292;SDS011;67256;51.154;4.164;2023-03-01T08:06:33;11.70;;;7.68;;
76292;SDS011;67256;51.154;4.164;2023-03-01T08:09:00;14.15;;;8.10;;
76292;SDS011;67256;51.154;4.164;2023-03-01T08:11:27;15.10;;;8.45;;
76292;SDS011;67256;51.154;4.164;2023-03-01T08:13:53;14.73;;;8.95;;
76292;SDS011;67256;51.154;4.164;2023-03-01T08:16:19;13.85;;;8.15;;
76292;SDS011;67256;51.154;4.164;2023-03-01T08:18:45;11.93;;;7.47;;
76292;SDS011;67256;51.154;4.164;2023-03-01T08:21:12;15.20;;;8.57;;
76292;SDS011;67256;51.154;4.164;2023-03-01T08:23:40;14.07;;;9.05;;
76292;SDS011;67256;51.154;4.164;2023-03-01T08:28:39;13.32;;;8.13;;
76292;SDS011;67256;51.154;4.164;2023-03-01T08:31:27;17.55;;;8.15;;
76292;SDS011;67256;51.154;4.164;2023-03-01T08:33:57;17.05;;;8.85;;
76292;SDS011;67256;51.154;4.164;2023-03-01T08:36:37;14.02;;;8.10;;
76292;SDS011;67256;51.154;4.164;2023-03-01T08:39:09;12.18;;;7.22;;
76292;SDS011;67256;51.154;4.164;2023-03-01T08:41:36;13.00;;;7.78;;
76292;SDS011;67256;51.154;4.164;2023-03-01T08:44:03;10.23;;;7.15;;
76292;SDS011;67256;51.154;4.164;2023-03-01T08:46:30;12.90;;;7.57;;
76292;SDS011;67256;51.154;4.164;2023-03-01T08:48:58;11.50;;;7.68;;
76292;SDS011;67256;51.154;4.164;2023-03-01T08:51:25;11.25;;;7.00;;
76292;SDS011;67256;51.154;4.164;2023-03-01T08:53:51;12.77;;;7.47;;
76292;SDS011;67256;51.154;4.164;2023-03-01T08:56:17;12.10;;;7.72;;
76292;SDS011;67256;51.154;4.164;2023-03-01T08:58:44;12.73;;;6.82;;
76292;SDS011;67256;51.154;4.164;2023-03-01T09:01:11;9.20;;;6.75;;
76292;SDS011;67256;51.154;4.164;2023-03-01T09:03:39;11.45;;;7.15;;
76292;SDS011;67256;51.154;4.164;2023-03-01T09:06:05;10.02;;;7.40;;
76292;SDS011;67256;51.154;4.164;2023-03-01T09:08:38;15.70;;;8.18;;
76292;SDS011;67256;51.154;4.164;2023-03-01T09:11:06;11.20;;;8.13;;
76292;SDS011;67256;51.154;4.164;2023-03-01T09:13:34;11.93;;;7.97;;
76292;SDS011;67256;51.154;4.164;2023-03-01T09:16:03;20.10;;;8.35;;
76292;SDS011;67256;51.154;4.164;2023-03-01T09:18:32;15.10;;;7.88;;
76292;SDS011;67256;51.154;4.164;2023-03-01T09:21:05;12.52;;;8.05;;
76292;SDS011;67256;51.154;4.164;2023-03-01T09:23:39;12.27;;;7.22;;
76292;SDS011;67256;51.154;4.164;2023-03-01T09:26:07;13.20;;;7.45;;
76292;SDS011;67256;51.154;4.164;2023-03-01T09:28:34;11.32;;;7.72;;
76292;SDS011;67256;51.154;4.164;2023-03-01T09:31:01;11.07;;;7.70;;
76292;SDS011;67256;51.154;4.164;2023-03-01T09:33:28;13.68;;;8.60;;
76292;SDS011;67256;51.154;4.164;2023-03-01T09:36:01;18.45;;;8.75;;
76292;SDS011;67256;51.154;4.164;2023-03-01T09:38:29;13.00;;;8.27;;
76292;SDS011;67256;51.154;4.164;2023-03-01T09:40:55;12.00;;;7.70;;
76292;SDS011;67256;51.154;4.164;2023-03-01T09:45:59;13.02;;;7.85;;
76292;SDS011;67256;51.154;4.164;2023-03-01T09:48:30;14.73;;;8.63;;
76292;SDS011;67256;51.154;4.164;2023-03-01T09:51:21;15.87;;;8.47;;
76292;SDS011;67256;51.154;4.164;2023-03-01T09:53:52;11.15;;;7.57;;
76292;SDS011;67256;51.154;4.164;2023-03-01T09:56:20;10.57;;;7.82;;
76292;SDS011;67256;51.154;4.164;2023-03-01T10:10:42;11.18;;;7.93;;
76292;SDS011;67256;51.154;4.164;2023-03-01T10:13:25;13.50;;;8.27;;
76292;SDS011;67256;51.154;4.164;2023-03-01T10:16:15;11.07;;;7.30;;
76292;SDS011;67256;51.154;4.164;2023-03-01T10:18:46;16.48;;;8.20;;
76292;SDS011;67256;51.154;4.164;2023-03-01T10:23:44;12.23;;;8.00;;
76292;SDS011;67256;51.154;4.164;2023-03-01T10:29:09;13.10;;;7.65;;
76292;SDS011;67256;51.154;4.164;2023-03-01T10:31:49;30.45;;;9.93;;
76292;SDS011;67256;51.154;4.164;2023-03-01T10:34:18;11.45;;;7.10;;
76292;SDS011;67256;51.154;4.164;2023-03-01T10:36:49;13.15;;;7.70;;
76292;SDS011;67256;51.154;4.164;2023-03-01T10:39:21;13.88;;;8.20;;
76292;SDS011;67256;51.154;4.164;2023-03-01T10:42:00;10.98;;;7.30;;
76292;SDS011;67256;51.154;4.164;2023-03-01T10:44:47;12.75;;;7.28;;
76292;SDS011;67256;51.154;4.164;2023-03-01T10:47:18;13.85;;;7.50;;
76292;SDS011;67256;51.154;4.164;2023-03-01T10:49:51;13.55;;;7.47;;
76292;SDS011;67256;51.154;4.164;2023-03-01T10:52:20;14.18;;;8.10;;
76292;SDS011;67256;51.154;4.164;2023-03-01T10:54:55;18.13;;;8.82;;
76292;SDS011;67256;51.154;4.164;2023-03-01T10:57:30;11.20;;;8.00;;
76292;SDS011;67256;51.154;4.164;2023-03-01T11:02:51;15.85;;;8.52;;
76292;SDS011;67256;51.154;4.164;2023-03-01T11:05:22;11.00;;;7.60;;
76292;SDS011;67256;51.154;4.164;2023-03-01T11:10:26;13.15;;;7.55;;
76292;SDS011;67256;51.154;4.164;2023-03-01T11:13:05;10.45;;;7.80;;
76292;SDS011;67256;51.154;4.164;2023-03-01T11:15:40;12.27;;;8.48;;
76292;SDS011;67256;51.154;4.164;2023-03-01T11:18:22;10.68;;;7.47;;
76292;SDS011;67256;51.154;4.164;2023-03-01T11:20:49;10.10;;;6.85;;
76292;SDS011;67256;51.154;4.164;2023-03-01T11:23:18;12.20;;;6.97;;
76292;SDS011;67256;51.154;4.164;2023-03-01T11:25:48;9.25;;;6.50;;
76292;SDS011;67256;51.154;4.164;2023-03-01T11:28:28;9.82;;;6.63;;
76292;SDS011;67256;51.154;4.164;2023-03-01T11:39:17;12.15;;;7.22;;
76292;SDS011;67256;51.154;4.164;2023-03-01T11:41:48;11.18;;;7.22;;
76292;SDS011;67256;51.154;4.164;2023-03-01T11:44:28;10.98;;;7.40;;
76292;SDS011;67256;51.154;4.164;2023-03-01T11:47:06;11.55;;;7.68;;
76292;SDS011;67256;51.154;4.164;2023-03-01T12:00:25;9.60;;;6.45;;
76292;SDS011;67256;51.154;4.164;2023-03-01T12:27:37;7.95;;;5.78;;
76292;SDS011;67256;51.154;4.164;2023-03-01T12:49:51;12.02;;;5.88;;
76292;SDS011;67256;51.154;4.164;2023-03-01T12:52:27;11.65;;;6.70;;
76292;SDS011;67256;51.154;4.164;2023-03-01T12:54:54;8.68;;;5.50;;
76292;SDS011;67256;51.154;4.164;2023-03-01T12:57:28;6.80;;;5.65;;
76292;SDS011;67256;51.154;4.164;2023-03-01T13:09:21;10.93;;;6.45;;
76292;SDS011;67256;51.154;4.164;2023-03-01T13:11:55;10.13;;;6.03;;
76292;SDS011;67256;51.154;4.164;2023-03-01T13:16:53;9.65;;;5.78;;
76292;SDS011;67256;51.154;4.164;2023-03-01T13:19:23;8.38;;;6.10;;
76292;SDS011;67256;51.154;4.164;2023-03-01T13:21:51;15.30;;;6.90;;
76292;SDS011;67256;51.154;4.164;2023-03-01T13:29:48;14.13;;;6.15;;
76292;SDS011;67256;51.154;4.164;2023-03-01T13:32:37;8.52;;;5.78;;
76292;SDS011;67256;51.154;4.164;2023-03-01T13:37:45;9.70;;;6.57;;
76292;SDS011;67256;51.154;4.164;2023-03-01T13:42:53;8.65;;;6.25;;
76292;SDS011;67256;51.154;4.164;2023-03-01T13:45:25;9.95;;;7.00;;
76292;SDS011;67256;51.154;4.164;2023-03-01T13:48:02;10.85;;;6.43;;
76292;SDS011;67256;51.154;4.164;2023-03-01T13:50:50;10.75;;;5.78;;
76292;SDS011;67256;51.154;4.164;2023-03-01T13:53:18;9.20;;;5.60;;
76292;SDS011;67256;51.154;4.164;2023-03-01T13:55:48;11.27;;;6.38;;
76292;SDS011;67256;51.154;4.164;2023-03-01T13:58:49;11.50;;;6.93;;
76292;SDS011;67256;51.154;4.164;2023-03-01T14:03:49;7.53;;;5.22;;
76292;SDS011;67256;51.154;4.164;2023-03-01T14:06:16;9.07;;;6.25;;
76292;SDS011;67256;51.154;4.164;2023-03-01T14:08:45;8.13;;;5.28;;
76292;SDS011;67256;51.154;4.164;2023-03-01T14:11:34;8.55;;;5.57;;
76292;SDS011;67256;51.154;4.164;2023-03-01T14:19:46;11.38;;;5.70;;
76292;SDS011;67256;51.154;4.164;2023-03-01T14:22:18;15.43;;;6.00;;
76292;SDS011;67256;51.154;4.164;2023-03-01T14:24:54;8.13;;;5.82;;
76292;SDS011;67256;51.154;4.164;2023-03-01T14:27:26;10.05;;;5.53;;
76292;SDS011;67256;51.154;4.164;2023-03-01T14:29:59;10.48;;;6.40;;
76292;SDS011;67256;51.154;4.164;2023-03-01T14:32:28;9.10;;;5.57;;
76292;SDS011;67256;51.154;4.164;2023-03-01T14:34:56;11.35;;;6.13;;
76292;SDS011;67256;51.154;4.164;2023-03-01T14:37:30;6.30;;;4.95;;
76292;SDS011;67256;51.154;4.164;2023-03-01T14:40:00;10.75;;;6.10;;
76292;SDS011;67256;51.154;4.164;2023-03-01T14:42:29;12.23;;;6.50;;
76292;SDS011;67256;51.154;4.164;2023-03-01T14:44:59;9.85;;;6.68;;
76292;SDS011;67256;51.154;4.164;2023-03-01T14:47:27;13.40;;;6.45;;
76292;SDS011;67256;51.154;4.164;2023-03-01T14:50:07;8.73;;;6.00;;
76292;SDS011;67256;51.154;4.164;2023-03-01T14:52:41;12.10;;;6.32;;
76292;SDS011;67256;51.154;4.164;2023-03-01T14:55:20;10.20;;;6.30;;
76292;SDS011;67256;51.154;4.164;2023-03-01T14:57:51;16.25;;;6.85;;
76292;SDS011;67256;51.154;4.164;2023-03-01T15:00:27;10.90;;;6.55;;
76292;SDS011;67256;51.154;4.164;2023-03-01T15:02:55;12.65;;;6.57;;
76292;SDS011;67256;51.154;4.164;2023-03-01T15:05:31;9.88;;;5.88;;
76292;SDS011;67256;51.154;4.164;2023-03-01T15:08:00;12.38;;;8.23;;
76292;SDS011;67256;51.154;4.164;2023-03-01T15:10:29;9.15;;;5.45;;
76292;SDS011;67256;51.154;4.164;2023-03-01T15:13:13;9.82;;;6.25;;
76292;SDS011;67256;51.154;4.164;2023-03-01T15:15:49;9.55;;;6.88;;
76292;SDS011;67256;51.154;4.164;2023-03-01T15:18:20;9.05;;;6.22;;
76292;SDS011;67256;51.154;4.164;2023-03-01T15:20:50;11.88;;;6.30;;
76292;SDS011;67256;51.154;4.164;2023-03-01T15:23:21;9.40;;;6.30;;
76292;SDS011;67256;51.154;4.164;2023-03-01T15:25:48;7.47;;;6.20;;
76292;SDS011;67256;51.154;4.164;2023-03-01T15:28:22;9.20;;;6.55;;
76292;SDS011;67256;51.154;4.164;2023-03-01T15:30:55;12.38;;;6.32;;
76292;SDS011;67256;51.154;4.164;2023-03-01T15:33:28;10.45;;;7.22;;
76292;SDS011;67256;51.154;4.164;2023-03-01T15:35:58;9.10;;;6.47;;
76292;SDS011;67256;51.154;4.164;2023-03-01T15:41:04;11.52;;;6.82;;
76292;SDS011;67256;51.154;4.164;2023-03-01T15:43:38;10.48;;;6.90;;
76292;SDS011;67256;51.154;4.164;2023-03-01T15:46:05;9.88;;;6.80;;
76292;SDS011;67256;51.154;4.164;2023-03-01T15:49:03;12.88;;;6.43;;
76292;SDS011;67256;51.154;4.164;2023-03-01T15:51:42;9.15;;;6.22;;
76292;SDS011;67256;51.154;4.164;2023-03-01T15:54:18;9.15;;;6.05;;
76292;SDS011;67256;51.154;4.164;2023-03-01T15:56:46;11.25;;;5.80;;
76292;SDS011;67256;51.154;4.164;2023-03-01T15:59:12;8.77;;;6.35;;
76292;SDS011;67256;51.154;4.164;2023-03-01T16:01:39;10.25;;;6.10;;
76292;SDS011;67256;51.154;4.164;2023-03-01T16:04:05;11.07;;;7.03;;
76292;SDS011;67256;51.154;4.164;2023-03-01T16:06:31;9.38;;;6.88;;
76292;SDS011;67256;51.154;4.164;2023-03-01T16:08:57;14.18;;;6.90;;
76292;SDS011;67256;51.154;4.164;2023-03-01T16:11:23;7.47;;;5.57;;
76292;SDS011;67256;51.154;4.164;2023-03-01T16:13:49;9.50;;;6.70;;
76292;SDS011;67256;51.154;4.164;2023-03-01T16:16:15;11.68;;;6.78;;
76292;SDS011;67256;51.154;4.164;2023-03-01T16:18:42;11.63;;;6.78;;
76292;SDS011;67256;51.154;4.164;2023-03-01T16:21:19;9.80;;;6.10;;
76292;SDS011;67256;51.154;4.164;2023-03-01T16:23:48;12.20;;;7.07;;
76292;SDS011;67256;51.154;4.164;2023-03-01T16:26:14;8.75;;;6.78;;
76292;SDS011;67256;51.154;4.164;2023-03-01T16:28:41;9.35;;;6.85;;
76292;SDS011;67256;51.154;4.164;2023-03-01T16:31:07;14.48;;;7.38;;
76292;SDS011;67256;51.154;4.164;2023-03-01T16:33:33;9.82;;;6.70;;
76292;SDS011;67256;51.154;4.164;2023-03-01T16:36:06;9.48;;;6.53;;
76292;SDS011;67256;51.154;4.164;2023-03-01T16:38:34;8.80;;;6.43;;
76292;SDS011;67256;51.154;4.164;2023-03-01T16:41:00;9.82;;;6.75;;
76292;SDS011;67256;51.154;4.164;2023-03-01T16:43:26;12.55;;;7.25;;
76292;SDS011;67256;51.154;4.164;2023-03-01T16:45:52;11.02;;;6.70;;
76292;SDS011;67256;51.154;4.164;2023-03-01T16:48:18;12.43;;;7.15;;
76292;SDS011;67256;51.154;4.164;2023-03-01T16:50:44;14.75;;;7.43;;
76292;SDS011;67256;51.154;4.164;2023-03-01T16:53:09;11.63;;;7.13;;
76292;SDS011;67256;51.154;4.164;2023-03-01T16:55:35;13.27;;;7.88;;
76292;SDS011;67256;51.154;4.164;2023-03-01T16:58:02;9.93;;;7.15;;
76292;SDS011;67256;51.154;4.164;2023-03-01T17:00:29;10.80;;;7.28;;
76292;SDS011;67256;51.154;4.164;2023-03-01T17:02:55;11.27;;;7.38;;
76292;SDS011;67256;51.154;4.164;2023-03-01T17:05:20;9.73;;;6.47;;
76292;SDS011;67256;51.154;4.164;2023-03-01T17:07:48;8.95;;;6.68;;
76292;SDS011;67256;51.154;4.164;2023-03-01T17:10:14;12.00;;;7.03;;
76292;SDS011;67256;51.154;4.164;2023-03-01T17:12:40;11.50;;;6.60;;